createdAt,value
2019-03-05T00:01:52.112Z,2.27
2019-03-05T00:04:19.570Z,1.57
2019-03-05T00:06:45.708Z,0.68
2019-03-05T00:09:13.700Z,4.95
2019-03-05T00:11:40.120Z,4.95
2019-03-05T00:14:06.415Z,1.25
2019-03-05T00:16:41.677Z,0.70
2019-03-05T00:19:08.199Z,0.50
2019-03-05T00:21:34.445Z,1.85
2019-03-05T00:24:38.187Z,0.75
2019-03-05T00:27:24.314Z,1.25
2019-03-05T00:30:12.452Z,0.80
2019-03-05T00:32:38.691Z,1.42
2019-03-05T00:35:15.009Z,8.85
2019-03-05T00:37:44.944Z,1.20
2019-03-05T00:40:23.756Z,4.22
2019-03-05T00:43:01.864Z,1.57
2019-03-05T00:45:53.708Z,0.70
2019-03-05T00:48:43.400Z,1.02
2019-03-05T00:51:25.266Z,7.37
2019-03-05T00:54:06.287Z,0.95
2019-03-05T00:56:47.864Z,1.65
2019-03-05T00:59:33.147Z,1.50
2019-03-05T01:02:06.100Z,0.88
2019-03-05T01:04:45.395Z,1.37
2019-03-05T01:07:11.478Z,3.47
2019-03-05T01:09:37.644Z,2.17
2019-03-05T01:12:05.345Z,1.02
2019-03-05T01:14:32.118Z,2.90
2019-03-05T01:16:58.662Z,2.20
2019-03-05T01:19:24.968Z,1.55
2019-03-05T01:21:51.487Z,12.75
2019-03-05T01:24:17.642Z,1.20
2019-03-05T01:26:43.764Z,0.60
2019-03-05T01:29:09.873Z,2.67
2019-03-05T01:31:43.938Z,0.85
2019-03-05T01:34:15.117Z,1.22
2019-03-05T01:36:52.274Z,0.78
2019-03-05T01:39:40.358Z,1.42
2019-03-05T01:42:07.351Z,1.95
2019-03-05T01:44:34.161Z,1.05
2019-03-05T01:47:00.326Z,1.10
2019-03-05T01:49:26.394Z,0.82
2019-03-05T01:51:52.760Z,2.85
2019-03-05T01:54:18.940Z,5.10
2019-03-05T01:56:44.995Z,2.25
2019-03-05T01:59:11.613Z,1.15
2019-03-05T02:01:37.938Z,1.55
2019-03-05T02:04:04.390Z,2.05
2019-03-05T02:06:30.531Z,0.82
2019-03-05T02:08:56.856Z,1.95
2019-03-05T02:11:22.919Z,1.32
2019-03-05T02:14:09.150Z,1.67
2019-03-05T02:16:35.303Z,0.98
2019-03-05T02:19:33.736Z,2.12
2019-03-05T02:21:59.895Z,2.90
2019-03-05T02:24:39.299Z,1.70
2019-03-05T02:27:42.820Z,0.95
2019-03-05T02:30:32.692Z,3.60
2019-03-05T02:33:18.441Z,0.85
2019-03-05T02:35:54.491Z,2.02
2019-03-05T02:38:45.391Z,0.80
2019-03-05T02:41:21.210Z,1.42
2019-03-05T02:44:38.408Z,1.50
2019-03-05T02:47:26.849Z,2.05
2019-03-05T02:50:11.996Z,3.80
2019-03-05T02:52:44.858Z,4.62
2019-03-05T02:55:23.805Z,0.82
2019-03-05T02:57:49.716Z,1.77
2019-03-05T03:00:18.387Z,2.90
2019-03-05T03:02:52.403Z,2.33
2019-03-05T03:05:20.955Z,2.40
2019-03-05T03:07:47.140Z,3.05
2019-03-05T03:10:19.767Z,3.08
2019-03-05T03:12:45.846Z,1.65
2019-03-05T03:15:12.317Z,1.32
2019-03-05T03:17:38.386Z,0.82
2019-03-05T03:20:07.463Z,3.33
2019-03-05T03:22:33.541Z,1.50
2019-03-05T03:24:59.641Z,0.90
2019-03-05T03:27:25.727Z,3.00
2019-03-05T03:29:51.812Z,1.55
2019-03-05T03:32:17.869Z,2.60
2019-03-05T03:34:43.948Z,2.35
2019-03-05T03:37:10.024Z,3.30
2019-03-05T03:39:36.100Z,0.78
2019-03-05T03:42:02.408Z,0.82
2019-03-05T03:44:28.499Z,3.70
2019-03-05T03:46:54.579Z,1.00
2019-03-05T03:49:20.723Z,2.37
2019-03-05T03:51:46.954Z,2.35
2019-03-05T03:54:13.132Z,0.80
2019-03-05T03:56:39.200Z,1.37
2019-03-05T03:59:05.281Z,2.27
2019-03-05T04:01:31.456Z,3.15
2019-03-05T04:03:57.547Z,1.57
2019-03-05T04:06:23.717Z,1.02
2019-03-05T04:08:49.801Z,1.47
2019-03-05T04:11:15.867Z,1.22
2019-03-05T04:13:42.063Z,2.15
2019-03-05T04:16:08.215Z,2.50
2019-03-05T04:18:34.276Z,2.62
2019-03-05T04:21:00.476Z,1.20
2019-03-05T04:23:26.559Z,0.93
2019-03-05T04:25:52.665Z,1.00
2019-03-05T04:28:38.638Z,4.33
2019-03-05T04:31:04.820Z,0.75
2019-03-05T04:33:30.887Z,3.10
2019-03-05T04:35:56.976Z,3.25
2019-03-05T04:38:23.047Z,1.47
2019-03-05T04:40:49.224Z,5.42
2019-03-05T04:43:15.302Z,3.33
2019-03-05T04:45:43.283Z,2.17
2019-03-05T04:48:09.349Z,1.92
2019-03-05T04:50:43.319Z,3.65
2019-03-05T04:53:09.391Z,1.57
2019-03-05T04:55:35.477Z,4.03
2019-03-05T04:58:01.547Z,1.47
2019-03-05T05:00:27.730Z,0.75
2019-03-05T05:02:53.896Z,2.47
2019-03-05T05:05:20.076Z,1.55
2019-03-05T05:07:46.126Z,1.85
2019-03-05T05:10:12.431Z,3.12
2019-03-05T05:12:38.590Z,1.00
2019-03-05T05:15:08.475Z,3.22
2019-03-05T05:17:34.530Z,2.75
2019-03-05T05:20:00.618Z,2.25
2019-03-05T05:22:26.683Z,2.30
2019-03-05T05:24:52.785Z,2.37
2019-03-05T05:27:18.856Z,0.55
2019-03-05T05:29:44.958Z,1.85
2019-03-05T05:32:11.048Z,0.70
2019-03-05T05:34:37.135Z,0.80
2019-03-05T05:37:03.331Z,5.22
2019-03-05T05:40:07.333Z,6.83
2019-03-05T05:42:33.492Z,0.95
2019-03-05T05:44:59.590Z,4.22
2019-03-05T05:47:25.645Z,0.95
2019-03-05T05:49:51.723Z,3.27
2019-03-05T05:52:17.794Z,1.72
2019-03-05T05:54:43.886Z,3.37
2019-03-05T05:57:09.939Z,1.27
2019-03-05T05:59:36.006Z,2.05
2019-03-05T06:02:02.103Z,1.40
2019-03-05T06:04:28.292Z,2.17
2019-03-05T06:06:54.459Z,4.15
2019-03-05T06:09:20.513Z,2.15
2019-03-05T06:11:46.592Z,1.10
2019-03-05T06:14:12.675Z,3.37
2019-03-05T06:16:38.829Z,9.20
2019-03-05T06:19:04.922Z,4.67
2019-03-05T06:21:31.103Z,1.52
2019-03-05T06:23:57.249Z,1.50
2019-03-05T06:26:23.359Z,3.08
2019-03-05T06:28:49.434Z,1.07
2019-03-05T06:31:15.560Z,0.72
2019-03-05T06:33:41.648Z,0.60
2019-03-05T06:36:07.729Z,1.35
2019-03-05T06:38:33.819Z,1.87
2019-03-05T06:40:59.900Z,3.98
2019-03-05T06:43:25.975Z,0.78
2019-03-05T06:45:52.091Z,1.75
2019-03-05T06:48:19.132Z,1.50
2019-03-05T06:50:45.203Z,1.05
2019-03-05T06:53:11.437Z,2.60
2019-03-05T06:55:37.523Z,2.55
2019-03-05T06:58:03.598Z,2.15
2019-03-05T07:00:37.698Z,2.12
2019-03-05T07:03:05.569Z,3.42
2019-03-05T07:06:09.539Z,1.05
2019-03-05T07:08:37.925Z,1.70
2019-03-05T07:11:16.560Z,1.47
2019-03-05T07:13:44.051Z,1.40
2019-03-05T07:16:13.945Z,1.67
2019-03-05T07:18:42.807Z,2.15
2019-03-05T07:21:21.539Z,0.95
2019-03-05T07:24:11.324Z,0.50
2019-03-05T07:26:37.402Z,1.98
2019-03-05T07:29:03.584Z,0.60
2019-03-05T07:31:29.687Z,1.75
2019-03-05T07:33:55.891Z,1.10
2019-03-05T07:36:21.971Z,3.20
2019-03-05T07:38:48.034Z,2.85
2019-03-05T07:41:14.135Z,0.80
2019-03-05T07:43:40.191Z,0.75
2019-03-05T07:46:06.250Z,1.17
2019-03-05T07:48:32.337Z,0.90
2019-03-05T07:50:58.514Z,2.55
2019-03-05T07:53:24.695Z,3.15
2019-03-05T07:55:50.772Z,3.27
2019-03-05T07:58:16.861Z,0.95
2019-03-05T08:00:42.934Z,1.32
2019-03-05T08:03:09.019Z,0.95
2019-03-05T08:05:35.487Z,1.05
2019-03-05T08:08:38.935Z,2.50
2019-03-05T08:11:05.000Z,1.05
2019-03-05T08:13:33.496Z,3.52
2019-03-05T08:16:08.467Z,0.60
2019-03-05T08:18:34.566Z,5.58
2019-03-05T08:21:00.673Z,1.30
2019-03-05T08:23:26.792Z,2.10
2019-03-05T08:25:52.875Z,0.40
2019-03-05T08:28:19.074Z,5.20
2019-03-05T08:30:45.152Z,5.15
2019-03-05T08:35:37.315Z,2.50
2019-03-05T08:38:03.527Z,0.70
2019-03-05T08:40:29.668Z,0.72
2019-03-05T08:42:55.772Z,2.35
2019-03-05T08:45:29.230Z,1.30
2019-03-05T08:47:49.817Z,1.30
2019-03-05T08:50:16.021Z,0.62
2019-03-05T08:52:42.079Z,2.02
2019-03-05T08:55:09.555Z,1.02
2019-03-05T08:57:35.656Z,1.55
2019-03-05T09:00:23.564Z,1.40
2019-03-05T09:02:49.724Z,0.60
2019-03-05T09:05:17.800Z,28.62
2019-03-05T09:07:44.481Z,70.20
2019-03-05T09:10:17.066Z,5.00
2019-03-05T09:12:43.243Z,1.40
2019-03-05T09:15:16.901Z,5.20
2019-03-05T09:17:42.991Z,16.60
2019-03-05T09:20:12.191Z,40.05
2019-03-05T09:22:38.341Z,12.43
2019-03-05T09:25:07.732Z,64.82
2019-03-05T09:27:33.832Z,2.52
2019-03-05T09:29:59.909Z,26.95
2019-03-05T09:32:25.995Z,4.03
2019-03-05T09:34:52.062Z,4.65
2019-03-05T09:37:18.129Z,75.30
2019-03-05T09:39:44.211Z,18.80
2019-03-05T09:42:10.367Z,138.18
2019-03-05T09:44:36.466Z,26.80
2019-03-05T09:47:02.632Z,18.37
2019-03-05T09:49:28.750Z,53.35
2019-03-05T09:51:54.895Z,152.10
2019-03-05T09:54:20.961Z,14.75
2019-03-05T09:56:47.078Z,6.90
2019-03-05T09:59:13.232Z,8.63
2019-03-05T10:01:39.323Z,39.78
2019-03-05T10:04:05.432Z,1.15
2019-03-05T10:06:31.511Z,2.58
2019-03-05T10:11:23.745Z,13.28
2019-03-05T10:13:49.839Z,52.15
2019-03-05T10:16:15.939Z,5.55
2019-03-05T10:18:42.130Z,0.75
2019-03-05T10:21:08.811Z,0.60
2019-03-05T10:23:34.964Z,1.40
2019-03-05T10:26:01.074Z,0.62
2019-03-05T10:28:27.462Z,2.95
2019-03-05T10:30:53.543Z,0.78
2019-03-05T10:33:19.730Z,0.30
2019-03-05T10:35:45.918Z,11.08
2019-03-05T10:38:12.691Z,5.62
2019-03-05T10:40:43.918Z,8.83
2019-03-05T10:43:13.102Z,1.20
2019-03-05T10:45:42.000Z,164.32
2019-03-05T10:48:08.283Z,27.55
2019-03-05T10:50:34.348Z,10.60
2019-03-05T10:53:00.526Z,55.03
2019-03-05T10:55:26.804Z,31.90
2019-03-05T10:58:13.968Z,5.10
2019-03-05T11:00:46.395Z,0.00
2019-03-05T11:03:12.959Z,4.60
2019-03-05T11:05:39.442Z,15.50
2019-03-05T11:08:08.726Z,2.57
2019-03-05T11:10:34.803Z,174.47
2019-03-05T11:13:00.970Z,45.80
2019-03-05T11:15:30.070Z,6.00
2019-03-05T11:20:22.395Z,22.40
2019-03-05T11:22:49.514Z,21.00
2019-03-05T11:27:42.255Z,16.40
2019-03-05T11:30:36.039Z,0.95
2019-03-05T11:35:31.988Z,6.00
2019-03-05T11:37:58.256Z,7.12
2019-03-05T11:42:52.007Z,5.65
2019-03-05T11:45:21.403Z,2.77
2019-03-05T11:47:47.861Z,40.83
2019-03-05T11:50:14.635Z,2.67
2019-03-05T11:52:40.806Z,2.08
2019-03-05T11:55:16.014Z,46.10
2019-03-05T12:05:09.423Z,7.45
2019-03-05T12:07:35.506Z,2.17
2019-03-05T12:17:19.686Z,40.70
2019-03-05T12:19:45.848Z,2.42
2019-03-05T12:22:11.971Z,4.40
2019-03-05T12:24:38.047Z,11.65
2019-03-05T12:27:04.103Z,4.37
2019-03-05T12:36:48.136Z,9.63
2019-03-05T12:41:41.282Z,1.62
2019-03-05T12:44:07.391Z,70.50
2019-03-05T12:46:33.459Z,18.95
2019-03-05T12:51:25.488Z,4.57
2019-03-05T13:01:11.912Z,9.30
2019-03-05T13:06:04.031Z,8.90
2019-03-05T13:16:07.930Z,5.80
2019-03-05T13:21:03.654Z,8.75
2019-03-05T13:25:53.984Z,70.80
2019-03-05T13:30:46.022Z,5.70
2019-03-05T13:35:38.243Z,4.55
2019-03-05T13:38:09.511Z,72.58
2019-03-05T13:40:38.557Z,4.92
2019-03-05T13:43:04.468Z,1.95
2019-03-05T13:48:19.739Z,15.68
2019-03-05T13:50:51.588Z,2.62
2019-03-05T13:53:36.635Z,2.25
2019-03-05T13:56:42.324Z,4.28
2019-03-05T13:59:41.663Z,4.03
2019-03-05T14:02:08.347Z,6.00
2019-03-05T14:04:50.287Z,151.37
2019-03-05T14:07:54.095Z,3.20
2019-03-05T14:10:20.270Z,43.48
2019-03-05T14:12:46.349Z,56.23
2019-03-05T14:15:12.930Z,2.47
2019-03-05T14:17:40.437Z,3.52
2019-03-05T14:22:34.528Z,20.55
2019-03-05T14:27:28.477Z,3.55
2019-03-05T14:29:54.627Z,2.40
2019-03-05T14:32:20.719Z,8.53
2019-03-05T14:34:56.441Z,2.00
2019-03-05T14:37:23.042Z,1.25
2019-03-05T14:49:33.493Z,8.65
2019-03-05T14:51:59.650Z,2.30
2019-03-05T14:54:25.843Z,1.05
2019-03-05T14:56:52.046Z,4.70
2019-03-05T15:09:04.218Z,2.10
2019-03-05T15:11:30.301Z,0.82
2019-03-05T15:13:56.555Z,1.27
2019-03-05T15:16:22.677Z,1.55
2019-03-05T15:18:48.856Z,2.22
2019-03-05T15:21:15.010Z,3.30
2019-03-05T15:26:07.247Z,11.55
2019-03-05T15:28:33.490Z,2.50
2019-03-05T15:38:17.824Z,3.75
2019-03-05T15:45:36.086Z,80.53
2019-03-05T15:50:29.034Z,3.85
2019-03-05T15:55:21.220Z,373.95
2019-03-05T15:57:47.321Z,0.60
2019-03-05T16:00:23.141Z,4.25
2019-03-05T16:02:49.455Z,2.37
2019-03-05T16:05:16.639Z,1.30
2019-03-05T16:07:43.963Z,1.52
2019-03-05T16:10:13.314Z,2.30
2019-03-05T16:12:42.570Z,454.85
2019-03-05T16:15:10.492Z,494.65
2019-03-05T16:17:36.680Z,428.82
2019-03-05T16:20:04.786Z,298.30
2019-03-05T16:22:30.875Z,355.40
2019-03-05T16:24:56.960Z,476.70
2019-03-05T16:27:23.031Z,496.07
2019-03-05T16:29:52.011Z,558.33
2019-03-05T16:32:23.119Z,547.63
2019-03-05T16:34:51.759Z,389.65
2019-03-05T16:37:28.937Z,325.87
2019-03-05T16:40:00.026Z,425.32
2019-03-05T16:42:41.853Z,284.65
2019-03-05T16:45:25.507Z,310.90
2019-03-05T16:48:09.220Z,294.98
2019-03-05T16:50:52.683Z,127.42
2019-03-05T16:53:37.383Z,159.30
2019-03-05T16:56:23.819Z,195.45
2019-03-05T16:59:08.495Z,158.60
2019-03-05T17:01:45.372Z,358.45
2019-03-05T17:04:22.298Z,336.00
2019-03-05T17:06:50.291Z,332.18
2019-03-05T17:09:33.783Z,216.50
2019-03-05T17:11:59.863Z,207.43
2019-03-05T17:14:26.031Z,202.80
2019-03-05T17:16:52.322Z,172.15
2019-03-05T17:19:18.513Z,166.65
2019-03-05T17:21:44.699Z,258.27
2019-03-05T17:24:10.867Z,148.78
2019-03-05T17:26:37.069Z,147.32
2019-03-05T17:29:03.346Z,334.73
2019-03-05T17:31:29.534Z,111.45
2019-03-05T17:33:55.723Z,113.20
2019-03-05T17:36:22.304Z,119.50
2019-03-05T17:38:48.376Z,116.65
2019-03-05T17:41:14.565Z,101.38
2019-03-05T17:43:40.739Z,103.75
2019-03-05T17:46:06.824Z,110.50
2019-03-05T17:48:32.983Z,85.83
2019-03-05T17:50:59.050Z,151.50
2019-03-05T17:53:25.232Z,82.02
2019-03-05T17:55:51.399Z,82.60
2019-03-05T17:58:17.480Z,209.35
2019-03-05T18:00:45.375Z,93.03
2019-03-05T18:03:11.557Z,92.55
2019-03-05T18:05:37.632Z,80.45
2019-03-05T18:08:04.218Z,160.03
2019-03-05T18:10:30.393Z,90.70
2019-03-05T18:12:56.683Z,72.60
2019-03-05T18:15:22.775Z,77.15
2019-03-05T18:17:48.942Z,74.07
2019-03-05T18:20:17.023Z,82.25
2019-03-05T18:22:43.603Z,82.65
2019-03-05T18:25:11.588Z,80.77
2019-03-05T18:27:37.633Z,80.87
2019-03-05T18:30:07.505Z,69.25
2019-03-05T18:32:33.561Z,77.37
2019-03-05T18:34:59.613Z,83.65
2019-03-05T18:37:26.004Z,71.82
2019-03-05T18:39:52.068Z,64.82
2019-03-05T18:42:18.234Z,90.77
2019-03-05T18:44:44.302Z,80.15
2019-03-05T18:47:10.374Z,281.82
2019-03-05T18:49:36.447Z,94.97
2019-03-05T18:52:03.034Z,130.40
2019-03-05T18:54:29.103Z,153.07
2019-03-05T18:56:55.174Z,81.80
2019-03-05T18:59:21.355Z,110.60
2019-03-05T19:01:47.440Z,80.30
2019-03-05T19:04:13.625Z,65.35
2019-03-05T19:06:39.691Z,189.43
2019-03-05T19:09:06.175Z,224.02
2019-03-05T19:11:32.343Z,79.65
2019-03-05T19:13:58.427Z,177.25
2019-03-05T19:16:24.512Z,75.12
2019-03-05T19:18:50.599Z,249.40
2019-03-05T19:21:16.667Z,275.35
2019-03-05T19:23:42.775Z,85.95
2019-03-05T19:26:09.246Z,91.47
2019-03-05T19:28:35.312Z,77.85
2019-03-05T19:31:01.400Z,85.70
2019-03-05T19:33:27.479Z,88.30
2019-03-05T19:35:53.565Z,85.07
2019-03-05T19:38:19.724Z,67.67
2019-03-05T19:40:46.899Z,82.95
2019-03-05T19:43:13.065Z,73.65
2019-03-05T19:45:39.148Z,77.70
2019-03-05T19:48:05.615Z,173.95
2019-03-05T19:50:31.675Z,83.22
2019-03-05T19:52:57.964Z,131.03
2019-03-05T19:55:25.259Z,72.32
2019-03-05T19:57:53.355Z,65.17
2019-03-05T20:00:31.970Z,69.55
2019-03-05T20:02:58.027Z,68.97
2019-03-05T20:05:24.111Z,65.20
2019-03-05T20:07:50.298Z,80.32
2019-03-05T20:10:22.310Z,157.43
2019-03-05T20:12:48.458Z,61.73
2019-03-05T20:15:16.027Z,78.80
2019-03-05T20:17:42.629Z,99.80
2019-03-05T20:20:10.294Z,213.62
2019-03-05T20:22:36.674Z,175.00
2019-03-05T20:25:06.550Z,108.22
2019-03-05T20:27:32.650Z,95.03
2019-03-05T20:29:58.812Z,60.43
2019-03-05T20:32:25.197Z,77.87
2019-03-05T20:34:51.376Z,81.57
2019-03-05T20:37:17.458Z,238.50
2019-03-05T20:39:43.532Z,79.37
2019-03-05T20:42:09.811Z,88.65
2019-03-05T20:44:35.992Z,72.30
2019-03-05T20:47:02.258Z,81.12
2019-03-05T20:49:28.334Z,64.82
2019-03-05T20:51:54.595Z,93.35
2019-03-05T20:54:20.787Z,58.98
2019-03-05T20:56:46.859Z,73.50
2019-03-05T20:59:13.529Z,67.45
2019-03-05T21:01:39.823Z,60.05
2019-03-05T21:04:05.911Z,50.15
2019-03-05T21:06:32.075Z,86.87
2019-03-05T21:08:58.166Z,81.30
2019-03-05T21:11:24.222Z,87.02
2019-03-05T21:13:50.291Z,79.75
2019-03-05T21:16:16.445Z,78.45
2019-03-05T21:18:42.925Z,74.65
2019-03-05T21:21:09.086Z,115.77
2019-03-05T21:23:35.178Z,68.60
2019-03-05T21:26:01.255Z,155.40
2019-03-05T21:28:27.329Z,74.10
2019-03-05T21:30:53.478Z,72.25
2019-03-05T21:33:19.851Z,62.95
2019-03-05T21:35:46.013Z,149.20
2019-03-05T21:38:12.109Z,110.52
2019-03-05T21:40:38.306Z,221.32
2019-03-05T21:43:04.393Z,182.93
2019-03-05T21:45:45.676Z,91.30
2019-03-05T21:48:11.871Z,140.18
2019-03-05T21:50:38.039Z,171.65
2019-03-05T21:53:04.840Z,209.25
2019-03-05T21:55:31.127Z,82.25
2019-03-05T21:57:57.327Z,86.10
2019-03-05T22:00:40.158Z,153.00
2019-03-05T22:03:06.278Z,202.85
2019-03-05T22:05:34.179Z,110.10
2019-03-05T22:08:00.268Z,386.67
2019-03-05T22:10:26.433Z,215.55
2019-03-05T22:12:52.497Z,82.33
2019-03-05T22:15:23.359Z,85.17
2019-03-05T22:17:50.296Z,82.20
2019-03-05T22:20:18.075Z,71.12
2019-03-05T22:22:44.446Z,83.95
2019-03-05T22:25:16.207Z,74.72
2019-03-05T22:27:42.295Z,80.75
2019-03-05T22:30:14.873Z,101.78
2019-03-05T22:32:40.936Z,80.40
2019-03-05T22:35:08.019Z,90.05
2019-03-05T22:37:34.383Z,408.35
2019-03-05T22:40:00.467Z,405.55
2019-03-05T22:42:26.536Z,287.55
2019-03-05T22:44:52.631Z,136.60
2019-03-05T22:47:18.812Z,79.95
2019-03-05T22:49:44.886Z,294.55
2019-03-05T22:52:10.959Z,147.37
2019-03-05T22:54:37.150Z,126.27
2019-03-05T22:57:03.262Z,128.15
2019-03-05T22:59:29.325Z,122.80
2019-03-05T23:01:55.495Z,202.80
2019-03-05T23:04:25.406Z,88.52
2019-03-05T23:06:51.649Z,65.47
2019-03-05T23:09:19.747Z,76.85
2019-03-05T23:11:45.817Z,68.65
2019-03-05T23:14:11.982Z,288.65
2019-03-05T23:16:38.068Z,253.60
2019-03-05T23:19:04.247Z,237.17
2019-03-05T23:21:30.360Z,283.87
2019-03-05T23:23:56.535Z,170.32
2019-03-05T23:26:22.802Z,275.98
2019-03-05T23:28:48.894Z,119.02
2019-03-05T23:31:14.961Z,119.53
2019-03-05T23:33:41.243Z,221.25
2019-03-05T23:36:07.499Z,78.05
2019-03-05T23:38:33.759Z,143.55
2019-03-05T23:40:59.956Z,478.75
2019-03-05T23:43:26.025Z,82.62
2019-03-05T23:45:52.215Z,66.92
2019-03-05T23:48:18.279Z,99.25
2019-03-05T23:50:44.447Z,97.80
2019-03-05T23:53:10.954Z,90.05
2019-03-05T23:55:37.033Z,175.95
2019-03-05T23:58:03.104Z,115.97
